createdAt,value
2022-12-04T00:03:32.156Z,74.50
2022-12-04T00:08:36.327Z,75.00
2022-12-04T00:13:43.523Z,74.87
2022-12-04T00:18:47.707Z,74.39
2022-12-04T00:23:55.094Z,74.02
2022-12-04T00:29:03.131Z,74.34
2022-12-04T00:34:08.312Z,73.84
2022-12-04T00:39:12.525Z,74.10
2022-12-04T00:44:20.699Z,73.35
2022-12-04T00:49:24.921Z,73.54
2022-12-04T00:54:31.096Z,73.97
2022-12-04T00:59:39.296Z,74.35
2022-12-04T01:04:44.587Z,73.98
2022-12-04T01:09:48.691Z,73.85
2022-12-04T01:14:57.922Z,74.36
2022-12-04T01:20:02.119Z,73.76
2022-12-04T01:25:08.292Z,74.07
2022-12-04T01:30:16.520Z,74.07
2022-12-04T01:35:20.654Z,74.02
2022-12-04T01:40:25.857Z,74.38
2022-12-04T01:45:46.199Z,73.68
2022-12-04T01:50:53.293Z,73.54
2022-12-04T01:55:59.470Z,73.73
2022-12-04T02:01:09.839Z,73.50
2022-12-04T02:06:13.874Z,73.04
2022-12-04T02:11:33.142Z,73.99
2022-12-04T02:16:48.394Z,73.62
2022-12-04T02:21:56.696Z,73.72
2022-12-04T02:27:04.933Z,74.02
2022-12-04T02:32:21.891Z,73.11
2022-12-04T02:37:32.061Z,73.76
2022-12-04T02:42:43.440Z,73.28
2022-12-04T02:47:53.628Z,73.66
2022-12-04T02:53:03.826Z,73.46
2022-12-04T02:58:16.062Z,73.73
2022-12-04T03:03:25.595Z,72.74
2022-12-04T03:08:34.459Z,73.12
2022-12-04T03:13:43.195Z,72.98
2022-12-04T03:18:55.777Z,73.14
2022-12-04T03:24:07.084Z,73.13
2022-12-04T03:29:17.317Z,73.66
2022-12-04T03:34:30.522Z,73.84
2022-12-04T03:39:39.750Z,73.86
2022-12-04T03:44:48.945Z,73.14
2022-12-04T03:50:01.292Z,73.89
2022-12-04T03:55:11.367Z,73.54
2022-12-04T04:00:21.633Z,73.41
2022-12-04T04:05:31.871Z,73.25
2022-12-04T04:10:37.038Z,73.54
2022-12-04T04:16:03.364Z,73.51
2022-12-04T04:21:27.560Z,73.61
2022-12-04T04:26:37.747Z,73.89
2022-12-04T04:31:51.982Z,73.09
2022-12-04T04:37:07.220Z,73.33
2022-12-04T04:42:20.456Z,73.54
2022-12-04T04:47:30.665Z,73.73
2022-12-04T04:52:39.890Z,74.33
2022-12-04T04:57:44.065Z,73.84
2022-12-04T05:02:50.476Z,73.88
2022-12-04T05:07:59.541Z,73.94
2022-12-04T05:13:04.656Z,74.39
2022-12-04T05:18:09.841Z,73.61
2022-12-04T05:23:17.072Z,73.11
2022-12-04T05:28:21.240Z,73.39
2022-12-04T05:33:25.975Z,73.77
2022-12-04T05:38:32.421Z,73.73
2022-12-04T05:43:37.794Z,73.26
2022-12-04T05:48:41.998Z,73.92
2022-12-04T05:53:50.229Z,74.18
2022-12-04T05:58:57.382Z,73.97
2022-12-04T06:04:02.576Z,74.99
2022-12-04T06:09:13.748Z,75.54
2022-12-04T06:14:18.059Z,74.87
2022-12-04T06:19:23.180Z,75.02
2022-12-04T06:24:30.391Z,75.32
2022-12-04T06:29:37.567Z,75.87
2022-12-04T06:34:44.785Z,76.10
2022-12-04T06:39:50.771Z,76.54
2022-12-04T06:44:57.183Z,76.21
2022-12-04T06:50:02.373Z,75.77
2022-12-04T06:55:12.608Z,76.10
2022-12-04T07:00:18.793Z,75.29
2022-12-04T07:05:23.042Z,75.50
2022-12-04T07:10:31.810Z,75.93
2022-12-04T07:15:42.379Z,76.02
2022-12-04T07:20:49.568Z,75.99
2022-12-04T07:25:58.785Z,75.66
2022-12-04T07:31:07.984Z,75.36
2022-12-04T07:36:17.184Z,75.78
2022-12-04T07:41:22.519Z,74.98
2022-12-04T07:46:27.639Z,75.24
2022-12-04T07:51:37.136Z,75.09
2022-12-04T07:56:48.652Z,75.35
2022-12-04T08:01:54.513Z,75.06
2022-12-04T08:06:57.850Z,74.89
2022-12-04T08:12:04.594Z,74.18
2022-12-04T08:17:08.853Z,74.34
2022-12-04T08:22:12.960Z,74.37
2022-12-04T08:27:20.181Z,73.82
2022-12-04T08:32:29.278Z,74.03
2022-12-04T08:37:35.281Z,74.08
2022-12-04T08:42:43.799Z,73.36
2022-12-04T08:47:52.669Z,73.43
2022-12-04T08:53:00.146Z,72.98
2022-12-04T08:58:07.338Z,73.13
2022-12-04T09:03:14.542Z,72.75
2022-12-04T09:08:19.861Z,72.45
2022-12-04T09:13:26.939Z,72.35
2022-12-04T09:18:32.130Z,72.50
2022-12-04T09:23:37.338Z,72.43
2022-12-04T09:28:48.559Z,72.53
2022-12-04T09:33:52.757Z,72.69
2022-12-04T09:39:00.950Z,72.38
2022-12-04T09:44:13.240Z,72.02
2022-12-04T09:49:26.413Z,71.55
2022-12-04T09:54:37.598Z,70.97
2022-12-04T09:59:44.833Z,71.62
2022-12-04T10:04:48.997Z,71.12
2022-12-04T10:10:03.539Z,70.85
2022-12-04T10:15:22.470Z,70.58
2022-12-04T10:20:48.806Z,70.46
2022-12-04T10:25:57.868Z,69.19
2022-12-04T10:31:06.256Z,69.42
2022-12-04T10:36:16.365Z,68.46
2022-12-04T10:41:30.588Z,68.45
2022-12-04T10:46:46.194Z,69.23
2022-12-04T10:51:56.013Z,69.01
2022-12-04T10:57:03.206Z,68.68
2022-12-04T11:02:23.541Z,68.11
2022-12-04T11:07:31.703Z,68.11
2022-12-04T11:12:38.986Z,67.86
2022-12-04T11:17:51.090Z,67.65
2022-12-04T11:22:59.275Z,67.94
2022-12-04T11:28:06.474Z,67.69
2022-12-04T11:33:21.697Z,67.51
2022-12-04T11:38:31.923Z,67.50
2022-12-04T11:43:58.075Z,67.17
2022-12-04T11:49:26.452Z,66.48
2022-12-04T11:54:44.762Z,66.20
2022-12-04T12:00:12.988Z,65.76
2022-12-04T12:05:49.335Z,65.89
2022-12-04T12:11:05.546Z,65.43
2022-12-04T12:16:25.847Z,65.66
2022-12-04T12:21:46.058Z,64.71
2022-12-04T12:27:07.716Z,64.12
2022-12-04T12:32:33.583Z,62.77
2022-12-04T12:37:46.791Z,63.16
2022-12-04T12:43:01.083Z,63.26
2022-12-04T12:48:11.987Z,63.03
2022-12-04T12:53:27.363Z,63.05
2022-12-04T12:58:34.661Z,63.21
2022-12-04T13:03:47.220Z,63.10
2022-12-04T13:09:11.260Z,63.67
2022-12-04T13:14:19.339Z,62.78
2022-12-04T13:19:26.696Z,60.83
2022-12-04T13:25:01.857Z,61.33
2022-12-04T13:30:16.107Z,62.55
2022-12-04T13:35:29.421Z,62.20
2022-12-04T13:40:46.947Z,62.12
2022-12-04T13:45:55.759Z,61.88
2022-12-04T13:51:08.951Z,62.04
2022-12-04T13:56:32.489Z,62.21
2022-12-04T14:01:41.102Z,62.24
2022-12-04T14:06:53.659Z,62.33
2022-12-04T14:12:04.870Z,63.04
2022-12-04T14:17:24.080Z,63.34
2022-12-04T14:22:31.271Z,63.45
2022-12-04T14:27:46.520Z,62.93
2022-12-04T14:32:52.753Z,62.63
2022-12-04T14:37:59.943Z,63.67
2022-12-04T14:43:17.160Z,63.88
2022-12-04T14:48:35.080Z,63.54
2022-12-04T14:53:47.638Z,63.91
2022-12-04T14:58:57.863Z,64.00
2022-12-04T15:04:16.122Z,64.14
2022-12-04T15:09:41.371Z,64.17
2022-12-04T15:14:53.736Z,64.49
2022-12-04T15:20:10.870Z,65.32
2022-12-04T15:25:24.096Z,65.05
2022-12-04T15:30:35.243Z,64.44
2022-12-04T15:35:44.551Z,63.81
2022-12-04T15:40:56.718Z,62.39
2022-12-04T15:46:13.840Z,61.30
2022-12-04T15:51:22.142Z,60.78
2022-12-04T15:56:29.016Z,60.37
2022-12-04T16:01:45.669Z,61.48
2022-12-04T16:06:51.798Z,62.95
2022-12-04T16:12:04.022Z,64.01
2022-12-04T16:17:17.223Z,64.89
2022-12-04T16:22:26.408Z,65.87
2022-12-04T16:27:31.648Z,66.52
2022-12-04T16:32:38.932Z,67.05
2022-12-04T16:37:44.035Z,67.70
2022-12-04T16:42:49.236Z,68.03
2022-12-04T16:47:54.297Z,68.76
2022-12-04T16:52:57.614Z,68.62
2022-12-04T16:58:02.305Z,69.08
2022-12-04T17:03:07.573Z,70.09
2022-12-04T17:08:12.234Z,69.82
2022-12-04T17:13:17.352Z,69.95
2022-12-04T17:18:25.546Z,70.44
2022-12-04T17:23:28.985Z,70.33
2022-12-04T17:28:33.975Z,70.98
2022-12-04T17:33:41.159Z,70.91
2022-12-04T17:38:45.463Z,71.07
2022-12-04T17:43:49.875Z,71.09
2022-12-04T17:49:01.559Z,71.30
2022-12-04T17:54:09.915Z,72.11
2022-12-04T17:59:15.119Z,71.89
2022-12-04T18:04:21.323Z,72.42
2022-12-04T18:09:25.515Z,71.95
2022-12-04T18:14:31.697Z,72.51
2022-12-04T18:19:41.923Z,72.83
2022-12-04T18:24:49.097Z,72.63
2022-12-04T18:29:53.919Z,72.80
2022-12-04T18:34:59.511Z,72.42
2022-12-04T18:40:06.752Z,73.10
2022-12-04T18:45:11.767Z,72.86
2022-12-04T18:50:18.076Z,72.70
2022-12-04T18:55:22.293Z,73.52
2022-12-04T19:00:26.479Z,73.04
2022-12-04T19:05:31.739Z,73.68
2022-12-04T19:10:34.931Z,74.27
2022-12-04T19:15:46.041Z,74.35
2022-12-04T19:20:52.258Z,73.77
2022-12-04T19:25:59.741Z,74.09
2022-12-04T19:31:04.619Z,74.39
2022-12-04T19:36:13.857Z,74.11
2022-12-04T19:41:23.044Z,74.23
2022-12-04T19:46:31.299Z,74.27
2022-12-04T19:51:40.467Z,74.26
2022-12-04T19:56:47.636Z,73.81
2022-12-04T20:01:51.527Z,74.16
2022-12-04T20:06:57.107Z,74.31
2022-12-04T20:12:02.236Z,74.07
2022-12-04T20:17:06.473Z,74.11
2022-12-04T20:22:13.611Z,73.89
2022-12-04T20:27:17.803Z,74.00
2022-12-04T20:32:22.997Z,74.06
2022-12-04T20:37:30.185Z,74.05
2022-12-04T20:42:36.166Z,73.19
2022-12-04T20:47:40.552Z,73.62
2022-12-04T20:52:46.755Z,73.65
2022-12-04T20:57:50.938Z,73.65
2022-12-04T21:02:55.226Z,73.59
2022-12-04T21:08:01.490Z,73.07
2022-12-04T21:13:22.631Z,73.51
2022-12-04T21:18:28.862Z,73.20
2022-12-04T21:23:37.011Z,73.63
2022-12-04T21:28:41.172Z,73.65
2022-12-04T21:33:45.363Z,73.46
2022-12-04T21:38:52.286Z,73.61
2022-12-04T21:43:56.752Z,73.87
2022-12-04T21:49:00.939Z,74.02
2022-12-04T21:54:11.798Z,73.88
2022-12-04T21:59:18.338Z,73.45
2022-12-04T22:04:24.573Z,73.67
2022-12-04T22:09:31.764Z,73.88
2022-12-04T22:14:35.997Z,73.90
2022-12-04T22:19:40.128Z,74.05
2022-12-04T22:24:45.261Z,73.80
2022-12-04T22:29:51.690Z,74.10
2022-12-04T22:34:57.717Z,73.66
2022-12-04T22:40:04.994Z,73.54
2022-12-04T22:45:10.181Z,73.79
2022-12-04T22:50:14.366Z,74.42
2022-12-04T22:55:21.611Z,73.96
2022-12-04T23:00:25.744Z,74.05
2022-12-04T23:05:30.026Z,74.13
2022-12-04T23:10:38.632Z,74.56
2022-12-04T23:15:43.344Z,74.71
2022-12-04T23:20:46.592Z,74.61
2022-12-04T23:25:52.709Z,74.29
2022-12-04T23:30:56.939Z,74.47
2022-12-04T23:36:01.865Z,74.63
2022-12-04T23:41:12.359Z,74.85
2022-12-04T23:46:21.577Z,74.77
2022-12-04T23:51:25.560Z,75.26
2022-12-04T23:56:32.892Z,74.96
